Time;durP1;ratioP1;P1;durP2;ratioP2;P2;SDS_P1;SDS_P2;PMS_P1;PMS_P2;Temp;Humidity;BMP_temperature;BMP_pressure;BME280_temperature;BME280_humidity;BME280_pressure;Samples;Min_cycle;Max_cycle;Signal;HPM_P1;HPM_P2
2023/09/26 00:00:31;;;;;;;14.80;8.60;;;17.00;99.90;;;;;;4952338;29;20210;-67
2023/09/26 00:02:55;;;;;;;14.30;8.63;;;16.90;99.90;;;;;;4936869;29;20230;-68
2023/09/26 00:05:23;;;;;;;11.27;8.43;;;16.90;99.90;;;;;;4945143;29;20182;-67
2023/09/26 00:07:49;;;;;;;11.93;8.25;;;16.90;99.90;;;;;;4952176;29;20269;-67
2023/09/26 00:10:16;;;;;;;13.07;8.50;;;16.90;99.90;;;;;;4954289;29;20201;-67
2023/09/26 00:12:42;;;;;;;12.65;8.85;;;16.90;99.90;;;;;;4938451;29;20198;-67
2023/09/26 00:15:11;;;;;;;14.60;9.02;;;16.90;99.90;;;;;;4955863;29;20285;-67
2023/09/26 00:17:36;;;;;;;16.42;8.95;;;16.90;99.90;;;;;;4953354;29;20290;-65
2023/09/26 00:22:47;;;;;;;18.02;9.07;;;16.90;99.90;;;;;;4955443;29;20249;-67
2023/09/26 00:25:13;;;;;;;18.15;9.20;;;16.80;99.90;;;;;;4938301;29;20194;-66
2023/09/26 00:27:39;;;;;;;12.90;9.15;;;16.90;99.90;;;;;;4937326;29;20198;-69
2023/09/26 00:30:08;;;;;;;13.48;8.88;;;16.80;99.90;;;;;;4965522;28;20187;-67
2023/09/26 00:32:36;;;;;;;16.77;8.80;;;16.80;99.90;;;;;;4933179;29;20179;-67
2023/09/26 00:35:04;;;;;;;15.15;9.27;;;16.80;99.90;;;;;;4938825;29;20190;-66
2023/09/26 00:37:29;;;;;;;13.15;8.80;;;16.80;99.90;;;;;;4955633;29;20630;-67
2023/09/26 00:39:56;;;;;;;12.40;7.97;;;16.80;99.90;;;;;;4931784;29;20727;-68
2023/09/26 00:42:23;;;;;;;12.70;8.30;;;16.70;99.90;;;;;;4953988;29;20279;-66
2023/09/26 00:44:50;;;;;;;10.57;8.38;;;16.70;99.90;;;;;;4955139;29;20195;-65
2023/09/26 00:47:16;;;;;;;13.77;8.52;;;16.70;99.90;;;;;;4955334;29;20194;-66
2023/09/26 00:49:43;;;;;;;14.57;8.27;;;16.60;99.90;;;;;;4952943;29;20179;-69
2023/09/26 00:52:09;;;;;;;11.90;7.38;;;16.60;99.90;;;;;;4935687;29;20242;-67
2023/09/26 00:54:36;;;;;;;13.40;8.38;;;16.60;99.90;;;;;;4955573;29;20635;-67
2023/09/26 00:57:04;;;;;;;13.90;8.10;;;16.60;99.90;;;;;;4954674;29;20693;-66
2023/09/26 00:59:31;;;;;;;11.23;8.73;;;16.60;99.90;;;;;;4954104;29;20257;-71
2023/09/26 01:01:58;;;;;;;14.60;8.50;;;16.50;99.90;;;;;;4947437;28;20191;-67
2023/09/26 01:04:24;;;;;;;12.82;8.95;;;16.50;99.90;;;;;;4970151;28;20198;-66
2023/09/26 01:06:50;;;;;;;18.35;8.57;;;16.50;99.90;;;;;;4937869;29;20182;-66
2023/09/26 01:09:17;;;;;;;11.88;8.65;;;16.50;99.90;;;;;;4954983;29;20248;-67
2023/09/26 01:11:43;;;;;;;12.60;7.80;;;16.40;99.90;;;;;;4947630;29;20206;-69
2023/09/26 01:14:10;;;;;;;11.77;7.97;;;16.40;99.90;;;;;;4949896;29;20190;-67
2023/09/26 01:16:36;;;;;;;11.55;7.70;;;16.40;99.90;;;;;;4953052;29;20787;-67
2023/09/26 01:19:02;;;;;;;10.40;8.35;;;16.30;99.90;;;;;;4954863;29;20297;-67
2023/09/26 01:21:28;;;;;;;12.93;8.32;;;16.30;99.90;;;;;;4937630;29;20187;-67
2023/09/26 01:23:57;;;;;;;17.88;8.90;;;16.30;99.90;;;;;;4936530;29;20625;-66
2023/09/26 01:26:24;;;;;;;14.07;9.93;;;16.20;99.90;;;;;;4954301;29;20194;-66
2023/09/26 01:28:50;;;;;;;12.63;9.57;;;16.20;99.90;;;;;;4937138;29;20667;-67
2023/09/26 01:31:16;;;;;;;13.32;10.73;;;16.20;99.90;;;;;;4954565;29;20229;-67
2023/09/26 01:33:42;;;;;;;15.82;10.52;;;16.10;99.90;;;;;;4936154;29;20268;-67
2023/09/26 01:36:08;;;;;;;12.52;10.07;;;16.10;99.90;;;;;;4949002;28;20221;-66
2023/09/26 01:38:34;;;;;;;14.70;11.52;;;16.00;99.90;;;;;;4952848;29;20691;-68
2023/09/26 01:41:00;;;;;;;15.82;11.25;;;16.10;99.90;;;;;;4937216;29;20252;-67
2023/09/26 01:43:26;;;;;;;16.98;10.77;;;16.00;99.90;;;;;;4953603;29;20578;-68
2023/09/26 01:45:54;;;;;;;12.98;10.48;;;16.00;99.90;;;;;;4948954;28;20187;-67
2023/09/26 01:48:20;;;;;;;16.65;11.00;;;15.90;99.90;;;;;;4967587;28;20266;-68
2023/09/26 01:50:46;;;;;;;13.63;10.10;;;15.90;99.90;;;;;;4952895;29;20658;-67
2023/09/26 01:53:14;;;;;;;17.33;10.20;;;15.80;99.90;;;;;;4953098;29;20195;-67
2023/09/26 01:55:40;;;;;;;15.98;10.05;;;15.80;99.90;;;;;;4935123;29;20198;-69
2023/09/26 01:58:06;;;;;;;17.27;10.95;;;15.80;99.90;;;;;;4945774;29;20202;-67
2023/09/26 02:00:32;;;;;;;14.32;10.38;;;15.70;99.90;;;;;;4937078;29;20193;-66
2023/09/26 02:02:58;;;;;;;17.10;10.52;;;15.70;99.90;;;;;;4936445;29;20186;-68
2023/09/26 02:05:24;;;;;;;13.40;10.57;;;15.70;99.90;;;;;;4951831;29;20835;-67
2023/09/26 02:07:51;;;;;;;17.50;10.73;;;15.60;99.90;;;;;;4930538;29;20601;-69
2023/09/26 02:10:18;;;;;;;16.08;10.73;;;15.60;99.90;;;;;;4953905;29;20230;-68
2023/09/26 02:12:47;;;;;;;15.30;10.88;;;15.60;99.90;;;;;;4952325;28;20245;-67
2023/09/26 02:15:13;;;;;;;15.05;9.85;;;15.60;99.90;;;;;;4933526;29;20595;-67
2023/09/26 02:17:41;;;;;;;11.25;9.38;;;15.50;99.90;;;;;;4927957;29;20654;-67
2023/09/26 02:20:14;;;;;;;15.23;10.52;;;15.50;99.90;;;;;;4931476;29;20210;-66
2023/09/26 02:22:42;;;;;;;15.52;10.30;;;15.50;99.90;;;;;;4917538;29;20239;-68
2023/09/26 02:25:10;;;;;;;14.88;11.98;;;15.50;99.90;;;;;;4933594;29;20290;-67
2023/09/26 02:27:37;;;;;;;19.83;13.02;;;15.40;99.90;;;;;;4933438;29;20611;-66
2023/09/26 02:30:04;;;;;;;20.48;13.68;;;15.40;99.90;;;;;;4934829;29;20644;-66
2023/09/26 02:32:32;;;;;;;19.85;13.23;;;15.40;99.90;;;;;;4932741;29;20664;-67
2023/09/26 02:34:58;;;;;;;21.92;13.75;;;15.40;99.90;;;;;;4934718;29;20278;-67
2023/09/26 02:37:24;;;;;;;19.30;13.40;;;15.40;99.90;;;;;;4933526;29;20218;-69
2023/09/26 02:39:50;;;;;;;17.67;13.48;;;15.40;99.90;;;;;;4930025;29;20660;-67
2023/09/26 02:42:16;;;;;;;17.10;12.55;;;15.30;99.90;;;;;;4933775;29;20278;-66
2023/09/26 02:44:42;;;;;;;18.98;13.38;;;15.30;99.90;;;;;;4934165;29;20191;-65
2023/09/26 02:47:07;;;;;;;17.30;12.38;;;15.30;99.90;;;;;;4933497;29;20187;-67
2023/09/26 02:49:34;;;;;;;19.13;13.93;;;15.20;99.90;;;;;;4930025;29;20243;-67
2023/09/26 02:52:00;;;;;;;19.92;14.88;;;15.20;99.90;;;;;;4933171;29;20195;-67
2023/09/26 02:54:26;;;;;;;20.50;14.90;;;15.20;99.90;;;;;;4934610;28;20258;-67
2023/09/26 02:56:52;;;;;;;21.90;14.95;;;15.10;99.90;;;;;;4917702;29;20531;-66
2023/09/26 02:59:18;;;;;;;22.55;15.25;;;15.10;99.90;;;;;;4929611;29;20292;-69
2023/09/26 03:01:43;;;;;;;22.73;15.27;;;15.10;99.90;;;;;;4928187;29;20641;-71
2023/09/26 03:04:09;;;;;;;18.02;13.98;;;15.00;99.90;;;;;;4932558;29;20250;-67
2023/09/26 03:06:35;;;;;;;22.55;14.15;;;15.00;99.90;;;;;;4932702;29;20434;-67
2023/09/26 03:09:01;;;;;;;18.88;14.00;;;15.00;99.90;;;;;;4933492;29;20218;-67
2023/09/26 03:11:27;;;;;;;20.02;15.45;;;15.00;99.90;;;;;;4933032;29;20194;-67
2023/09/26 03:13:53;;;;;;;22.60;14.50;;;15.00;99.90;;;;;;4916692;29;20286;-66
2023/09/26 03:16:19;;;;;;;18.20;14.30;;;14.90;99.90;;;;;;4932461;29;20242;-66
2023/09/26 03:18:45;;;;;;;21.92;14.65;;;14.90;99.90;;;;;;4917120;29;20283;-65
2023/09/26 03:21:14;;;;;;;20.35;14.38;;;14.90;99.90;;;;;;4929522;29;20196;-67
2023/09/26 03:23:40;;;;;;;17.58;13.82;;;14.90;99.90;;;;;;4927004;29;20191;-68
2023/09/26 03:26:10;;;;;;;18.08;13.90;;;14.90;99.90;;;;;;4934490;29;20666;-67
2023/09/26 03:28:37;;;;;;;18.33;13.95;;;14.90;99.90;;;;;;4936540;29;20671;-66
2023/09/26 03:31:04;;;;;;;18.70;13.38;;;14.90;99.90;;;;;;4935465;29;20286;-67
2023/09/26 03:33:31;;;;;;;22.48;13.43;;;14.90;99.90;;;;;;4927257;29;20732;-67
2023/09/26 03:35:57;;;;;;;17.63;13.23;;;14.80;99.90;;;;;;4936241;29;20201;-67
2023/09/26 03:38:23;;;;;;;18.08;13.35;;;14.80;99.90;;;;;;4936509;29;20187;-66
2023/09/26 03:41:05;;;;;;;17.30;12.70;;;14.80;99.90;;;;;;4937142;29;20175;-68
2023/09/26 03:43:31;;;;;;;17.60;13.10;;;14.80;99.90;;;;;;4933945;29;20187;-68
2023/09/26 03:46:02;;;;;;;20.10;13.27;;;14.80;99.90;;;;;;4937508;29;20258;-68
2023/09/26 03:48:29;;;;;;;22.73;14.77;;;14.80;99.90;;;;;;4937007;29;20195;-66
2023/09/26 03:50:55;;;;;;;19.00;13.88;;;14.80;99.90;;;;;;4937598;29;20217;-67
2023/09/26 03:53:21;;;;;;;19.05;13.45;;;14.80;99.90;;;;;;4936127;29;20242;-66
2023/09/26 03:55:56;;;;;;;18.55;14.00;;;14.80;99.90;;;;;;4935933;29;20194;-66
2023/09/26 03:58:22;;;;;;;21.85;14.30;;;14.80;99.90;;;;;;4936831;29;20195;-66
2023/09/26 04:00:48;;;;;;;16.58;13.48;;;14.80;99.90;;;;;;4937233;29;20198;-66
2023/09/26 04:03:14;;;;;;;19.10;13.45;;;14.80;99.90;;;;;;4934112;29;20219;-70
2023/09/26 04:05:40;;;;;;;20.35;14.20;;;14.70;99.90;;;;;;4926518;29;20207;-66
2023/09/26 04:08:07;;;;;;;18.92;13.48;;;14.70;99.90;;;;;;4923660;29;20195;-70
2023/09/26 04:10:37;;;;;;;17.83;13.60;;;14.70;99.90;;;;;;4926208;29;20215;-67
2023/09/26 04:13:03;;;;;;;19.55;14.40;;;14.60;99.90;;;;;;4935239;29;20243;-69
2023/09/26 04:15:29;;;;;;;21.23;13.48;;;14.60;99.90;;;;;;4921559;29;20231;-68
2023/09/26 04:17:55;;;;;;;19.20;14.88;;;14.60;99.90;;;;;;4937009;29;20195;-69
2023/09/26 04:20:21;;;;;;;20.92;14.50;;;14.50;99.90;;;;;;4936822;29;20672;-68
2023/09/26 04:22:47;;;;;;;20.65;14.40;;;14.50;99.90;;;;;;4930314;29;20187;-65
2023/09/26 04:25:13;;;;;;;19.70;13.48;;;14.50;99.90;;;;;;4930446;29;20191;-67
2023/09/26 04:27:39;;;;;;;23.30;14.43;;;14.50;99.90;;;;;;4933128;29;20183;-66
2023/09/26 04:30:07;;;;;;;23.58;14.88;;;14.50;99.90;;;;;;4936775;29;20534;-67
2023/09/26 04:32:33;;;;;;;22.77;14.15;;;14.40;99.90;;;;;;4936618;29;20183;-67
2023/09/26 04:34:58;;;;;;;16.38;13.15;;;14.40;99.90;;;;;;4930733;29;20520;-67
2023/09/26 04:37:24;;;;;;;21.65;14.30;;;14.40;99.90;;;;;;4932777;29;20222;-68
2023/09/26 04:39:50;;;;;;;22.30;15.35;;;14.40;99.90;;;;;;4935673;29;20607;-67
2023/09/26 04:42:16;;;;;;;20.33;13.93;;;14.50;99.90;;;;;;4926822;29;20192;-67
2023/09/26 04:44:42;;;;;;;21.17;13.82;;;14.50;99.90;;;;;;4929135;29;20651;-67
2023/09/26 04:47:08;;;;;;;22.30;15.48;;;14.50;99.90;;;;;;4930290;29;20539;-68
2023/09/26 04:49:35;;;;;;;27.35;14.52;;;14.60;99.90;;;;;;4932201;29;20657;-67
2023/09/26 04:52:02;;;;;;;20.75;15.02;;;14.60;99.90;;;;;;4936690;29;20191;-66
2023/09/26 04:54:28;;;;;;;22.73;15.95;;;14.70;99.90;;;;;;4934958;29;20652;-68
2023/09/26 04:56:54;;;;;;;29.80;16.08;;;14.70;99.90;;;;;;4914936;29;20198;-67
2023/09/26 04:59:19;;;;;;;20.33;15.30;;;14.80;99.90;;;;;;4964952;28;20219;-68
2023/09/26 05:01:45;;;;;;;22.98;17.13;;;14.80;99.90;;;;;;4924774;29;20290;-68
2023/09/26 05:04:11;;;;;;;23.58;17.20;;;14.80;99.90;;;;;;4919503;29;20192;-65
2023/09/26 05:06:37;;;;;;;23.10;18.08;;;14.90;99.90;;;;;;4922603;29;20191;-73
2023/09/26 05:09:07;;;;;;;27.92;18.08;;;14.90;99.90;;;;;;4961655;28;20277;-68
2023/09/26 05:11:33;;;;;;;30.67;19.85;;;14.90;99.90;;;;;;4930095;29;20594;-70
2023/09/26 05:14:00;;;;;;;30.55;19.92;;;15.00;99.90;;;;;;4965212;28;20331;-67
2023/09/26 05:16:26;;;;;;;30.48;21.33;;;15.00;99.90;;;;;;4948587;29;20249;-67
2023/09/26 05:18:52;;;;;;;30.88;22.15;;;15.00;99.90;;;;;;4954287;29;20206;-72
2023/09/26 05:21:18;;;;;;;31.77;21.67;;;15.00;99.90;;;;;;4937518;29;20187;-67
2023/09/26 05:23:44;;;;;;;31.13;20.38;;;15.00;99.90;;;;;;4954502;29;20197;-66
2023/09/26 05:26:11;;;;;;;28.98;21.70;;;14.90;99.90;;;;;;4937367;29;20195;-68
2023/09/26 05:28:38;;;;;;;30.30;21.80;;;14.90;99.90;;;;;;4949994;29;20206;-67
2023/09/26 05:31:04;;;;;;;28.20;21.60;;;14.90;99.90;;;;;;4952371;29;20202;-67
2023/09/26 05:33:31;;;;;;;31.58;21.35;;;14.80;99.90;;;;;;4954764;29;20635;-68
2023/09/26 05:35:57;;;;;;;28.42;21.17;;;14.80;99.90;;;;;;4954157;29;20194;-68
2023/09/26 05:38:25;;;;;;;35.63;22.25;;;14.80;99.90;;;;;;4953405;29;20194;-67
2023/09/26 05:40:51;;;;;;;34.70;20.75;;;14.70;99.90;;;;;;4954805;29;20218;-67
2023/09/26 05:43:17;;;;;;;29.83;20.58;;;14.70;99.90;;;;;;4936499;29;20217;-67
2023/09/26 05:45:43;;;;;;;30.35;20.55;;;14.70;99.90;;;;;;4950982;29;20197;-68
2023/09/26 05:48:09;;;;;;;26.38;20.15;;;14.60;99.90;;;;;;4945995;28;20190;-68
2023/09/26 05:50:35;;;;;;;29.40;18.85;;;14.60;99.90;;;;;;4961705;28;20711;-69
2023/09/26 05:53:01;;;;;;;27.05;18.70;;;14.60;99.90;;;;;;4936485;29;20198;-66
2023/09/26 05:55:27;;;;;;;30.40;19.63;;;14.60;99.90;;;;;;4953123;29;20182;-69
2023/09/26 05:57:53;;;;;;;27.92;18.23;;;14.60;99.90;;;;;;4954483;29;20297;-64
2023/09/26 06:00:19;;;;;;;25.33;18.23;;;14.60;99.90;;;;;;4932262;29;20281;-67
2023/09/26 06:02:45;;;;;;;24.98;18.17;;;14.60;99.90;;;;;;4947723;29;20226;-68
2023/09/26 06:05:11;;;;;;;35.78;20.88;;;14.60;99.90;;;;;;4949289;29;20293;-67
2023/09/26 06:07:37;;;;;;;30.95;22.13;;;14.60;99.90;;;;;;4932701;29;20666;-71
2023/09/26 06:10:04;;;;;;;30.02;19.45;;;14.60;99.90;;;;;;4952705;29;20356;-65
2023/09/26 06:12:30;;;;;;;26.73;17.92;;;14.60;99.90;;;;;;4933006;29;20869;-67
2023/09/26 06:14:56;;;;;;;22.77;17.55;;;14.60;99.90;;;;;;4950294;29;20278;-68
2023/09/26 06:17:23;;;;;;;29.60;17.33;;;14.60;99.90;;;;;;4931921;29;20269;-68
2023/09/26 06:19:48;;;;;;;25.27;17.33;;;14.60;99.90;;;;;;4950906;29;20222;-65
2023/09/26 06:22:14;;;;;;;36.20;19.30;;;14.60;99.90;;;;;;4949460;29;20660;-65
2023/09/26 06:24:41;;;;;;;31.20;17.60;;;14.70;99.90;;;;;;4933289;29;20198;-68
2023/09/26 06:27:07;;;;;;;24.80;17.33;;;14.70;99.90;;;;;;4948156;29;20190;-68
2023/09/26 06:29:33;;;;;;;25.40;17.13;;;14.70;99.90;;;;;;4948169;29;20201;-66
2023/09/26 06:31:59;;;;;;;28.55;17.90;;;14.80;99.90;;;;;;4951661;29;20194;-66
2023/09/26 06:34:24;;;;;;;25.13;17.45;;;14.80;99.90;;;;;;4929742;29;20214;-70
2023/09/26 06:36:51;;;;;;;34.78;18.13;;;14.90;99.90;;;;;;4945260;29;20187;-67
2023/09/26 06:39:17;;;;;;;28.33;18.20;;;14.90;99.90;;;;;;4940583;29;20226;-66
2023/09/26 06:41:43;;;;;;;32.33;18.08;;;14.90;99.90;;;;;;4935198;29;20781;-66
2023/09/26 06:44:09;;;;;;;22.48;15.82;;;15.00;99.90;;;;;;4947357;29;20206;-66
2023/09/26 06:46:36;;;;;;;24.65;16.75;;;15.00;99.90;;;;;;4945100;29;20191;-67
2023/09/26 06:49:03;;;;;;;20.88;15.70;;;15.10;99.90;;;;;;4949554;29;20635;-68
2023/09/26 06:51:30;;;;;;;25.00;15.85;;;15.10;99.90;;;;;;4952611;29;20737;-66
2023/09/26 06:53:56;;;;;;;25.77;15.65;;;15.10;99.90;;;;;;4950844;29;20254;-67
2023/09/26 06:56:22;;;;;;;21.55;15.88;;;15.20;99.90;;;;;;4950126;29;20191;-68
2023/09/26 06:58:48;;;;;;;21.70;14.15;;;15.20;99.90;;;;;;4968055;28;20301;-65
2023/09/26 07:01:15;;;;;;;20.35;14.85;;;15.30;99.90;;;;;;4956535;29;20210;-64
2023/09/26 07:03:41;;;;;;;21.08;14.20;;;15.40;99.90;;;;;;4955568;29;20318;-68
2023/09/26 07:06:10;;;;;;;21.95;14.60;;;15.40;99.90;;;;;;4949593;29;20202;-67
2023/09/26 07:08:40;;;;;;;21.23;15.13;;;15.50;99.90;;;;;;4956148;29;20182;-69
2023/09/26 07:11:07;;;;;;;25.08;13.82;;;15.60;99.90;;;;;;4956751;29;20293;-65
2023/09/26 07:13:36;;;;;;;26.42;13.32;;;15.70;99.90;;;;;;4956104;29;20222;-67
2023/09/26 07:16:04;;;;;;;17.60;12.23;;;15.80;99.90;;;;;;4937841;29;20631;-67
2023/09/26 07:18:34;;;;;;;20.42;12.30;;;15.90;99.90;;;;;;4927028;28;20194;-67
2023/09/26 07:21:04;;;;;;;24.27;13.15;;;15.90;99.90;;;;;;4948003;29;20186;-66
2023/09/26 07:23:32;;;;;;;19.95;12.00;;;15.90;99.90;;;;;;4956709;29;20182;-67
2023/09/26 07:26:12;;;;;;;18.13;11.68;;;16.00;99.90;;;;;;4955570;29;20203;-67
2023/09/26 07:28:39;;;;;;;22.75;11.25;;;16.10;99.90;;;;;;4955731;29;20609;-66
2023/09/26 07:31:05;;;;;;;20.50;11.77;;;16.10;99.90;;;;;;4939331;29;20607;-67
2023/09/26 07:33:32;;;;;;;16.30;11.35;;;16.20;99.90;;;;;;4956282;29;20194;-68
2023/09/26 07:35:58;;;;;;;18.17;11.27;;;16.30;99.90;;;;;;4956473;29;20277;-69
2023/09/26 07:38:24;;;;;;;18.88;11.35;;;16.40;99.90;;;;;;4955973;29;20266;-66
2023/09/26 07:40:50;;;;;;;28.25;11.98;;;16.40;99.90;;;;;;4956121;29;20186;-64
2023/09/26 07:43:16;;;;;;;21.35;12.70;;;16.50;99.90;;;;;;4950935;29;20187;-69
2023/09/26 07:45:42;;;;;;;20.98;11.50;;;16.50;99.90;;;;;;4943184;29;20194;-68
2023/09/26 07:48:08;;;;;;;19.83;11.20;;;16.60;99.90;;;;;;4945295;29;20699;-69
2023/09/26 07:50:35;;;;;;;19.13;11.75;;;16.70;99.90;;;;;;4930919;29;20222;-68
2023/09/26 07:53:04;;;;;;;17.60;11.65;;;16.70;99.90;;;;;;4952937;29;20193;-67
2023/09/26 07:55:30;;;;;;;19.67;10.60;;;16.80;99.90;;;;;;4950365;29;20261;-70
2023/09/26 07:57:55;;;;;;;15.52;10.05;;;16.80;99.90;;;;;;4955863;29;20187;-65
2023/09/26 08:00:22;;;;;;;20.60;10.52;;;16.90;99.90;;;;;;4955893;29;20226;-66
2023/09/26 08:02:48;;;;;;;18.58;9.68;;;17.00;99.90;;;;;;4954627;29;20260;-65
2023/09/26 08:05:14;;;;;;;15.70;9.98;;;17.10;99.90;;;;;;4941933;28;20194;-65
2023/09/26 08:07:43;;;;;;;17.42;11.38;;;17.20;99.90;;;;;;4955876;29;20269;-65
2023/09/26 08:10:09;;;;;;;19.40;10.23;;;17.20;99.90;;;;;;4955008;28;20593;-64
2023/09/26 08:12:39;;;;;;;16.85;10.35;;;17.30;99.90;;;;;;4955664;29;20195;-64
2023/09/26 08:15:05;;;;;;;20.67;10.63;;;17.40;99.90;;;;;;4949646;29;20242;-66
2023/09/26 08:17:32;;;;;;;20.25;10.10;;;17.50;99.90;;;;;;4943176;29;20194;-64
2023/09/26 08:19:58;;;;;;;22.15;9.80;;;17.60;99.90;;;;;;4937246;29;20289;-64
2023/09/26 08:22:24;;;;;;;16.10;9.68;;;17.70;99.90;;;;;;4929059;29;20282;-65
2023/09/26 08:24:50;;;;;;;15.95;9.70;;;17.90;99.90;;;;;;4951947;29;20596;-69
2023/09/26 08:27:17;;;;;;;19.70;9.45;;;18.00;99.90;;;;;;4950429;29;20191;-68
2023/09/26 08:29:43;;;;;;;15.85;9.27;;;18.10;99.90;;;;;;4954899;29;20268;-66
2023/09/26 08:32:10;;;;;;;15.18;8.95;;;18.20;99.90;;;;;;4953994;29;20187;-66
2023/09/26 08:34:36;;;;;;;15.60;8.65;;;18.30;99.90;;;;;;4937511;29;20234;-66
2023/09/26 08:37:02;;;;;;;16.10;8.77;;;18.40;99.90;;;;;;4970393;28;20190;-65
2023/09/26 08:39:28;;;;;;;13.85;7.97;;;18.40;99.90;;;;;;4955212;29;20209;-66
2023/09/26 08:41:56;;;;;;;18.60;8.60;;;18.50;99.90;;;;;;4954982;29;20289;-65
2023/09/26 08:44:23;;;;;;;15.05;8.60;;;18.50;99.90;;;;;;4937719;29;20195;-69
2023/09/26 08:46:50;;;;;;;22.45;8.98;;;18.50;99.90;;;;;;4933238;29;20199;-65
2023/09/26 08:49:16;;;;;;;15.15;8.65;;;18.50;99.90;;;;;;4954830;29;20194;-65
2023/09/26 08:51:42;;;;;;;21.05;8.75;;;18.40;99.90;;;;;;4917905;29;20264;-65
2023/09/26 08:54:07;;;;;;;16.38;8.65;;;18.40;99.90;;;;;;4934997;29;20263;-66
2023/09/26 08:56:34;;;;;;;12.50;8.57;;;18.40;99.90;;;;;;4950167;29;20239;-66
2023/09/26 08:59:02;;;;;;;15.40;8.10;;;18.40;99.90;;;;;;4952788;29;20305;-67
2023/09/26 09:01:28;;;;;;;18.17;8.65;;;18.40;99.90;;;;;;4954678;29;20285;-67
2023/09/26 09:03:54;;;;;;;17.25;9.15;;;18.40;99.90;;;;;;4937836;29;20187;-66
2023/09/26 09:06:20;;;;;;;14.18;8.60;;;18.40;99.90;;;;;;4952452;29;20277;-67
2023/09/26 09:08:46;;;;;;;18.27;8.77;;;18.40;99.90;;;;;;4949963;29;20289;-64
2023/09/26 09:11:12;;;;;;;12.82;8.65;;;18.50;99.90;;;;;;4937598;29;20273;-66
2023/09/26 09:13:39;;;;;;;18.23;9.20;;;18.50;99.90;;;;;;4953825;29;20538;-66
2023/09/26 09:16:18;;;;;;;17.25;11.25;;;18.60;99.90;;;;;;4942034;29;20242;-65
2023/09/26 09:18:50;;;;;;;13.05;8.52;;;18.70;99.90;;;;;;4950156;29;20214;-65
2023/09/26 09:21:31;;;;;;;20.50;12.10;;;18.90;99.90;;;;;;4953799;28;20257;-66
2023/09/26 09:24:02;;;;;;;17.20;9.30;;;19.00;99.90;;;;;;4954515;29;20186;-69
2023/09/26 09:26:34;;;;;;;14.80;9.10;;;19.20;99.90;;;;;;4954466;29;20182;-69
2023/09/26 09:29:21;;;;;;;14.05;8.10;;;19.30;99.90;;;;;;4948976;29;20648;-65
2023/09/26 09:31:48;;;;;;;16.75;7.80;;;19.40;99.90;;;;;;4937525;29;20225;-65
2023/09/26 09:34:17;;;;;;;14.90;8.35;;;19.50;99.90;;;;;;4954640;29;20203;-66
2023/09/26 09:36:44;;;;;;;15.00;7.82;;;19.60;99.90;;;;;;4954356;29;20331;-65
2023/09/26 09:39:10;;;;;;;12.15;8.30;;;19.70;99.90;;;;;;4948787;29;20219;-67
2023/09/26 09:41:37;;;;;;;17.88;7.90;;;19.70;99.90;;;;;;4921120;29;20195;-65
2023/09/26 09:44:04;;;;;;;14.57;8.60;;;19.70;99.90;;;;;;4953967;29;20278;-66
2023/09/26 09:46:33;;;;;;;17.85;9.60;;;19.80;99.90;;;;;;4953965;29;20317;-65
2023/09/26 09:49:02;;;;;;;13.65;8.05;;;19.90;99.90;;;;;;4945678;28;20273;-66
2023/09/26 09:51:28;;;;;;;24.02;15.02;;;20.00;99.90;;;;;;4949238;29;20273;-65
2023/09/26 09:53:54;;;;;;;19.25;8.70;;;20.10;99.90;;;;;;4952497;29;20201;-65
2023/09/26 09:56:24;;;;;;;16.35;8.75;;;20.30;99.90;;;;;;4954258;29;20201;-65
2023/09/26 09:58:51;;;;;;;13.65;8.27;;;20.40;99.90;;;;;;4953826;29;20226;-66
2023/09/26 10:01:21;;;;;;;17.17;8.68;;;20.50;99.90;;;;;;4954313;29;20202;-68
2023/09/26 10:03:50;;;;;;;13.05;7.93;;;20.60;99.90;;;;;;4924963;29;20195;-69
2023/09/26 10:06:18;;;;;;;15.40;8.63;;;20.70;99.90;;;;;;4948277;28;20214;-66
2023/09/26 10:08:47;;;;;;;13.45;7.55;;;20.80;99.90;;;;;;4953330;29;20183;-65
2023/09/26 10:11:14;;;;;;;14.45;7.30;;;20.90;99.90;;;;;;4953213;29;20250;-65
2023/09/26 10:13:40;;;;;;;14.00;7.22;;;21.00;99.90;;;;;;4952486;29;20183;-66
2023/09/26 10:16:20;;;;;;;14.35;7.70;;;21.10;99.90;;;;;;4949566;29;20242;-65
2023/09/26 10:18:49;;;;;;;10.45;6.88;;;21.20;99.90;;;;;;4945427;29;20734;-65
2023/09/26 10:21:28;;;;;;;13.85;7.30;;;21.30;99.90;;;;;;4953303;29;20269;-65
2023/09/26 10:24:09;;;;;;;14.20;7.05;;;21.30;99.90;;;;;;4953522;29;20229;-65
2023/09/26 10:26:37;;;;;;;11.55;7.32;;;21.40;99.90;;;;;;4953440;29;20230;-66
2023/09/26 10:29:24;;;;;;;12.77;7.15;;;21.40;99.90;;;;;;4949245;29;20667;-69
2023/09/26 10:32:04;;;;;;;12.23;6.72;;;21.40;99.90;;;;;;4933956;29;20183;-65
2023/09/26 10:34:36;;;;;;;12.27;7.40;;;21.50;99.90;;;;;;4952897;28;20175;-65
2023/09/26 10:37:14;;;;;;;13.48;6.32;;;21.50;99.90;;;;;;4953292;29;20194;-66
2023/09/26 10:39:43;;;;;;;12.20;6.78;;;21.60;99.90;;;;;;4953255;29;20198;-66
2023/09/26 10:42:14;;;;;;;12.80;7.43;;;21.60;99.90;;;;;;4948465;29;20189;-68
2023/09/26 10:44:43;;;;;;;15.63;8.80;;;21.60;99.90;;;;;;4933984;29;20186;-65
2023/09/26 10:47:12;;;;;;;12.82;7.00;;;21.60;99.90;;;;;;4953306;29;20197;-66
2023/09/26 10:49:38;;;;;;;8.85;6.50;;;21.60;99.90;;;;;;4920414;29;20203;-66
2023/09/26 10:52:08;;;;;;;10.95;6.53;;;21.60;99.90;;;;;;4952926;29;20193;-64
2023/09/26 10:54:37;;;;;;;10.40;6.20;;;21.50;99.90;;;;;;4932318;29;20186;-70
2023/09/26 10:57:04;;;;;;;15.38;7.30;;;21.50;99.90;;;;;;4950640;29;20277;-67
2023/09/26 10:59:31;;;;;;;12.82;6.30;;;21.60;99.90;;;;;;4953194;29;20620;-65
2023/09/26 11:01:58;;;;;;;12.73;6.57;;;21.70;99.90;;;;;;4935862;29;20201;-67
2023/09/26 11:04:30;;;;;;;13.43;6.85;;;21.70;99.90;;;;;;4936498;29;20631;-66
2023/09/26 11:06:58;;;;;;;11.02;6.30;;;21.80;99.90;;;;;;4950449;29;20186;-65
2023/09/26 11:09:24;;;;;;;12.20;6.93;;;21.80;99.90;;;;;;4949314;29;20273;-65
2023/09/26 11:11:51;;;;;;;10.63;6.22;;;21.80;99.90;;;;;;4952576;29;20250;-70
2023/09/26 11:14:17;;;;;;;11.50;6.05;;;21.80;99.90;;;;;;4952552;29;20183;-65
2023/09/26 11:16:44;;;;;;;10.82;6.22;;;21.80;99.90;;;;;;4951578;28;20671;-66
2023/09/26 11:19:10;;;;;;;10.68;5.88;;;21.80;99.90;;;;;;4950907;29;20211;-67
2023/09/26 11:21:36;;;;;;;11.57;6.40;;;21.80;99.90;;;;;;4949782;29;20205;-65
2023/09/26 11:24:22;;;;;;;10.57;6.47;;;21.80;99.90;;;;;;4953039;29;20187;-66
2023/09/26 11:26:50;;;;;;;8.95;5.43;;;21.80;99.90;;;;;;4943135;29;20205;-66
2023/09/26 11:29:17;;;;;;;11.02;7.00;;;21.90;99.90;;;;;;4947787;29;20529;-66
2023/09/26 11:31:44;;;;;;;6.88;5.72;;;21.90;99.90;;;;;;4950565;29;20876;-65
2023/09/26 11:34:11;;;;;;;9.68;5.88;;;22.00;99.90;;;;;;4964769;28;20274;-66
2023/09/26 11:36:41;;;;;;;10.05;7.13;;;22.00;99.90;;;;;;4953336;29;20202;-66
2023/09/26 11:39:11;;;;;;;7.88;5.35;;;22.10;99.90;;;;;;4952245;29;20206;-66
2023/09/26 11:41:37;;;;;;;13.05;6.35;;;22.00;99.90;;;;;;4952466;29;20198;-65
2023/09/26 11:44:14;;;;;;;12.73;6.10;;;22.00;99.90;;;;;;4933413;29;20213;-64
2023/09/26 11:46:44;;;;;;;8.73;6.25;;;22.00;99.90;;;;;;4964625;28;20278;-66
2023/09/26 11:49:16;;;;;;;10.57;5.85;;;22.00;99.90;;;;;;4969767;28;20208;-65
2023/09/26 11:51:42;;;;;;;8.60;5.80;;;21.90;99.90;;;;;;4956064;29;20612;-66
2023/09/26 11:54:09;;;;;;;10.10;6.20;;;22.00;99.90;;;;;;4956133;29;20585;-65
2023/09/26 11:56:36;;;;;;;10.23;6.15;;;21.90;99.90;;;;;;4955080;29;20190;-65
2023/09/26 11:59:06;;;;;;;15.52;6.53;;;22.00;99.90;;;;;;4934369;29;20206;-65
2023/09/26 12:01:33;;;;;;;11.68;5.90;;;22.00;99.90;;;;;;4938963;29;20190;-65
2023/09/26 12:04:05;;;;;;;8.70;5.65;;;22.00;99.90;;;;;;4923205;29;20212;-65
2023/09/26 12:06:32;;;;;;;9.10;5.80;;;22.10;99.90;;;;;;4954968;29;20191;-67
2023/09/26 12:08:58;;;;;;;12.45;6.18;;;22.20;99.90;;;;;;4951331;29;20731;-66
2023/09/26 12:11:24;;;;;;;10.15;6.32;;;22.20;99.90;;;;;;4935015;29;20319;-66
2023/09/26 12:13:50;;;;;;;11.73;6.05;;;22.20;99.90;;;;;;4955201;29;20183;-66
2023/09/26 12:16:16;;;;;;;8.95;6.07;;;22.30;99.90;;;;;;4938038;29;20287;-66
2023/09/26 12:18:42;;;;;;;9.55;6.45;;;22.30;99.90;;;;;;4954403;29;20190;-67
2023/09/26 12:21:08;;;;;;;12.80;7.55;;;22.30;99.90;;;;;;4951698;29;20192;-65
2023/09/26 12:23:34;;;;;;;9.57;6.20;;;22.20;99.90;;;;;;4955655;29;20278;-65
2023/09/26 12:26:00;;;;;;;10.73;6.22;;;22.20;99.90;;;;;;4955762;29;20287;-66
2023/09/26 12:28:26;;;;;;;10.52;6.18;;;22.20;99.90;;;;;;4955542;29;20626;-65
2023/09/26 12:30:52;;;;;;;10.65;6.25;;;22.20;99.90;;;;;;4951529;29;20655;-66
2023/09/26 12:33:18;;;;;;;9.13;5.57;;;22.20;99.90;;;;;;4953738;29;20197;-65